createdAt,value
2019-01-20T00:01:55.522Z,85.53
2019-01-20T00:04:03.036Z,83.10
2019-01-20T00:06:10.659Z,83.93
2019-01-20T00:08:18.097Z,78.50
2019-01-20T00:10:25.162Z,78.13
2019-01-20T00:12:32.417Z,84.47
2019-01-20T00:14:39.764Z,84.33
2019-01-20T00:16:46.862Z,84.83
2019-01-20T00:18:53.948Z,83.13
2019-01-20T00:21:01.440Z,79.80
2019-01-20T00:23:08.730Z,78.97
2019-01-20T00:25:16.270Z,74.23
2019-01-20T00:27:23.589Z,75.17
2019-01-20T00:29:31.033Z,76.13
2019-01-20T00:31:38.934Z,75.77
2019-01-20T00:33:46.332Z,81.30
2019-01-20T00:35:53.329Z,80.17
2019-01-20T00:38:01.043Z,76.50
2019-01-20T00:40:10.529Z,75.20
2019-01-20T00:42:17.987Z,72.77
2019-01-20T00:44:25.776Z,68.10
2019-01-20T00:46:33.293Z,67.17
2019-01-20T00:48:40.689Z,67.03
2019-01-20T00:50:48.182Z,67.57
2019-01-20T00:52:55.367Z,67.23
2019-01-20T00:55:02.860Z,67.23
2019-01-20T00:57:10.503Z,64.50
2019-01-20T00:59:17.888Z,67.63
2019-01-20T01:01:27.398Z,66.20
2019-01-20T01:03:34.709Z,65.50
2019-01-20T01:05:42.105Z,74.43
2019-01-20T01:07:50.351Z,71.63
2019-01-20T01:09:57.908Z,71.77
2019-01-20T01:12:05.078Z,72.97
2019-01-20T01:14:12.106Z,70.93
2019-01-20T01:16:19.286Z,68.37
2019-01-20T01:18:26.646Z,71.97
2019-01-20T01:20:33.984Z,68.93
2019-01-20T01:22:41.577Z,67.83
2019-01-20T01:24:48.995Z,66.90
2019-01-20T01:26:56.290Z,70.47
2019-01-20T01:29:03.728Z,71.17
2019-01-20T01:31:11.201Z,84.60
2019-01-20T01:33:18.563Z,102.50
2019-01-20T01:35:26.296Z,99.77
2019-01-20T01:37:33.740Z,101.10
2019-01-20T01:39:41.215Z,98.90
2019-01-20T01:41:48.485Z,94.00
2019-01-20T01:43:55.960Z,93.10
2019-01-20T01:46:03.376Z,93.67
2019-01-20T01:48:10.889Z,103.73
2019-01-20T01:50:19.100Z,94.70
2019-01-20T01:52:26.438Z,90.77
2019-01-20T01:54:33.960Z,77.33
2019-01-20T01:56:41.204Z,78.40
2019-01-20T01:58:48.634Z,69.53
2019-01-20T02:00:56.161Z,72.33
2019-01-20T02:03:03.567Z,71.93
2019-01-20T02:05:11.292Z,72.90
2019-01-20T02:07:18.794Z,70.27
2019-01-20T02:09:26.571Z,72.40
2019-01-20T02:11:33.991Z,72.47
2019-01-20T02:13:41.449Z,74.10
2019-01-20T02:15:48.758Z,71.07
2019-01-20T02:17:56.201Z,69.60
2019-01-20T02:20:03.719Z,70.07
2019-01-20T02:22:11.331Z,70.60
2019-01-20T02:24:18.866Z,70.73
2019-01-20T02:26:26.358Z,70.97
2019-01-20T02:28:33.653Z,69.90
2019-01-20T02:30:40.815Z,68.53
2019-01-20T02:32:48.421Z,74.50
2019-01-20T02:34:55.849Z,72.13
2019-01-20T02:37:03.181Z,72.43
2019-01-20T02:39:10.802Z,75.20
2019-01-20T02:41:18.060Z,75.47
2019-01-20T02:43:25.419Z,74.40
2019-01-20T02:45:32.702Z,74.07
2019-01-20T02:47:40.092Z,76.30
2019-01-20T02:49:47.852Z,72.83
2019-01-20T02:51:55.518Z,77.10
2019-01-20T02:54:02.983Z,76.93
2019-01-20T02:56:10.274Z,79.17
2019-01-20T02:58:17.805Z,82.67
2019-01-20T03:00:25.928Z,79.83
2019-01-20T03:02:33.351Z,82.03
2019-01-20T03:04:40.832Z,84.87
2019-01-20T03:06:48.324Z,84.30
2019-01-20T03:08:55.696Z,83.47
2019-01-20T03:11:03.577Z,82.63
2019-01-20T03:13:10.914Z,82.10
2019-01-20T03:15:18.390Z,81.27
2019-01-20T03:17:25.931Z,79.77
2019-01-20T03:19:33.332Z,79.43
2019-01-20T03:21:40.648Z,76.27
2019-01-20T03:23:48.405Z,81.10
2019-01-20T03:25:55.741Z,79.90
2019-01-20T03:28:03.218Z,77.97
2019-01-20T03:30:15.150Z,78.60
2019-01-20T03:32:22.559Z,78.30
2019-01-20T03:34:29.946Z,82.97
2019-01-20T03:36:37.321Z,88.47
2019-01-20T03:38:44.757Z,86.70
2019-01-20T03:40:52.096Z,86.07
2019-01-20T03:42:59.671Z,84.63
2019-01-20T03:45:09.236Z,86.73
2019-01-20T03:47:16.636Z,85.10
2019-01-20T03:49:24.093Z,81.73
2019-01-20T03:51:31.130Z,81.50
2019-01-20T03:53:38.191Z,81.53
2019-01-20T03:55:45.663Z,83.83
2019-01-20T03:57:53.053Z,82.30
2019-01-20T04:00:00.479Z,83.77
2019-01-20T04:02:07.916Z,82.93
2019-01-20T04:04:15.318Z,81.90
2019-01-20T04:06:22.702Z,82.57
2019-01-20T04:08:30.218Z,81.60
2019-01-20T04:10:37.572Z,74.53
2019-01-20T04:12:45.454Z,76.37
2019-01-20T04:14:52.909Z,73.53
2019-01-20T04:17:00.262Z,71.67
2019-01-20T04:19:07.622Z,72.57
2019-01-20T04:21:15.050Z,69.90
2019-01-20T04:23:22.390Z,70.67
2019-01-20T04:25:29.722Z,71.07
2019-01-20T04:27:37.143Z,70.77
2019-01-20T04:29:44.493Z,69.30
2019-01-20T04:31:51.666Z,69.87
2019-01-20T04:33:59.041Z,70.20
2019-01-20T04:36:06.213Z,68.40
2019-01-20T04:38:13.623Z,68.50
2019-01-20T04:40:23.688Z,69.17
2019-01-20T04:42:31.176Z,70.07
2019-01-20T04:44:38.510Z,67.20
2019-01-20T04:46:45.866Z,67.37
2019-01-20T04:48:53.283Z,68.83
2019-01-20T04:51:00.741Z,67.10
2019-01-20T04:53:08.790Z,71.17
2019-01-20T04:55:16.131Z,78.97
2019-01-20T04:57:23.695Z,81.60
2019-01-20T04:59:31.250Z,89.37
2019-01-20T05:01:38.607Z,85.63
2019-01-20T05:03:46.174Z,83.47
2019-01-20T05:05:53.645Z,73.47
2019-01-20T05:08:01.099Z,69.10
2019-01-20T05:10:10.307Z,69.23
2019-01-20T05:12:17.897Z,67.77
2019-01-20T05:14:25.693Z,69.17
2019-01-20T05:16:33.138Z,70.00
2019-01-20T05:18:40.728Z,70.73
2019-01-20T05:20:48.061Z,71.97
2019-01-20T05:22:55.431Z,70.13
2019-01-20T05:25:02.831Z,70.40
2019-01-20T05:27:10.196Z,69.73
2019-01-20T05:29:17.780Z,71.53
2019-01-20T05:31:25.169Z,69.87
2019-01-20T05:33:32.545Z,71.93
2019-01-20T05:35:39.924Z,69.23
2019-01-20T05:37:47.469Z,73.10
2019-01-20T05:39:54.928Z,74.53
2019-01-20T05:42:02.147Z,71.13
2019-01-20T05:44:09.761Z,72.27
2019-01-20T05:46:17.109Z,71.80
2019-01-20T05:48:24.539Z,72.27
2019-01-20T05:50:31.991Z,74.70
2019-01-20T05:52:39.459Z,74.70
2019-01-20T05:54:46.817Z,77.27
2019-01-20T05:56:54.257Z,77.00
2019-01-20T05:59:01.756Z,73.73
2019-01-20T06:01:09.104Z,72.47
2019-01-20T06:03:16.373Z,73.47
2019-01-20T06:05:23.691Z,72.00
2019-01-20T06:07:31.161Z,72.87
2019-01-20T06:09:38.975Z,73.87
2019-01-20T06:11:46.327Z,70.23
2019-01-20T06:13:53.705Z,84.37
2019-01-20T06:16:02.063Z,115.93
2019-01-20T06:18:09.828Z,120.13
2019-01-20T06:20:18.533Z,126.87
2019-01-20T06:22:25.864Z,102.33
2019-01-20T06:24:33.242Z,90.37
2019-01-20T06:26:40.764Z,104.90
2019-01-20T06:28:47.952Z,97.00
2019-01-20T06:30:55.276Z,93.93
2019-01-20T06:33:02.676Z,89.73
2019-01-20T06:35:10.175Z,90.80
2019-01-20T06:37:17.622Z,87.20
2019-01-20T06:39:25.007Z,89.53
2019-01-20T06:41:32.391Z,88.83
2019-01-20T06:43:40.033Z,89.80
2019-01-20T06:45:47.414Z,81.97
2019-01-20T06:47:55.086Z,84.77
2019-01-20T06:50:02.633Z,89.97
2019-01-20T06:52:09.893Z,91.73
2019-01-20T06:54:17.525Z,92.43
2019-01-20T06:56:25.066Z,88.93
2019-01-20T06:58:32.384Z,85.93
2019-01-20T07:00:39.580Z,80.90
2019-01-20T07:02:46.843Z,84.57
2019-01-20T07:04:54.216Z,81.50
2019-01-20T07:07:01.563Z,80.57
2019-01-20T07:09:10.362Z,80.50
2019-01-20T07:11:17.799Z,79.13
2019-01-20T07:13:25.208Z,76.03
2019-01-20T07:15:32.722Z,73.40
2019-01-20T07:17:40.389Z,70.47
2019-01-20T07:19:48.182Z,70.03
2019-01-20T07:21:55.614Z,69.17
2019-01-20T07:24:03.300Z,72.20
2019-01-20T07:26:10.994Z,67.03
2019-01-20T07:28:18.316Z,68.03
2019-01-20T07:30:26.998Z,66.67
2019-01-20T07:32:34.745Z,68.63
2019-01-20T07:34:42.210Z,68.77
2019-01-20T07:36:49.530Z,72.80
2019-01-20T07:38:57.222Z,87.30
2019-01-20T07:41:04.719Z,84.60
2019-01-20T07:43:16.704Z,85.13
2019-01-20T07:45:21.689Z,96.93
2019-01-20T07:47:30.034Z,101.73
2019-01-20T07:49:37.870Z,98.00
2019-01-20T07:51:45.675Z,101.37
2019-01-20T07:53:53.540Z,108.80
2019-01-20T07:56:01.229Z,114.47
2019-01-20T07:58:09.128Z,110.00
2019-01-20T08:00:19.252Z,110.40
2019-01-20T08:02:26.880Z,111.47
2019-01-20T08:04:34.404Z,107.43
2019-01-20T08:06:41.993Z,104.33
2019-01-20T08:08:49.501Z,104.47
2019-01-20T08:10:56.991Z,100.80
2019-01-20T08:13:06.287Z,98.73
2019-01-20T08:15:13.953Z,97.03
2019-01-20T08:17:21.591Z,87.70
2019-01-20T08:19:29.620Z,83.47
2019-01-20T08:21:36.973Z,82.00
2019-01-20T08:23:44.559Z,72.70
2019-01-20T08:25:52.123Z,72.00
2019-01-20T08:27:59.638Z,71.17
2019-01-20T08:30:09.825Z,71.93
2019-01-20T08:32:18.434Z,70.33
2019-01-20T08:34:26.137Z,73.20
2019-01-20T08:36:33.904Z,69.60
2019-01-20T08:38:41.434Z,70.93
2019-01-20T08:40:49.078Z,70.13
2019-01-20T08:42:56.754Z,73.37
2019-01-20T08:45:04.412Z,70.93
2019-01-20T08:47:21.618Z,75.53
2019-01-20T08:49:29.219Z,70.83
2019-01-20T08:51:39.516Z,74.10
2019-01-20T08:53:47.188Z,75.97
2019-01-20T08:55:55.391Z,71.37
2019-01-20T08:58:03.441Z,69.50
2019-01-20T09:00:16.163Z,65.30
2019-01-20T09:02:24.057Z,62.37
2019-01-20T09:04:31.838Z,62.43
2019-01-20T09:06:39.110Z,61.13
2019-01-20T09:08:46.836Z,57.10
2019-01-20T09:10:54.203Z,58.77
2019-01-20T09:13:04.100Z,57.27
2019-01-20T09:15:12.017Z,57.17
2019-01-20T09:17:19.788Z,59.23
2019-01-20T09:19:27.269Z,60.13
2019-01-20T09:21:35.400Z,58.50
2019-01-20T09:23:43.720Z,59.00
2019-01-20T09:25:51.232Z,70.13
2019-01-20T09:28:01.071Z,44.77
2019-01-20T09:30:14.022Z,51.77
2019-01-20T09:32:21.472Z,43.33
2019-01-20T09:34:29.093Z,44.07
2019-01-20T09:36:36.439Z,43.83
2019-01-20T09:38:44.687Z,42.03
2019-01-20T09:40:52.383Z,43.63
2019-01-20T09:43:01.172Z,41.97
2019-01-20T09:45:15.138Z,47.37
2019-01-20T09:47:23.141Z,47.30
2019-01-20T09:49:31.059Z,49.17
2019-01-20T09:51:39.113Z,60.17
2019-01-20T09:53:47.546Z,93.80
2019-01-20T09:55:55.976Z,58.30
2019-01-20T09:58:04.377Z,48.10
2019-01-20T10:00:17.079Z,50.33
2019-01-20T10:02:25.762Z,49.00
2019-01-20T10:04:34.035Z,51.57
2019-01-20T10:06:42.409Z,48.17
2019-01-20T10:08:50.911Z,47.60
2019-01-20T10:10:59.449Z,50.60
2019-01-20T10:13:07.773Z,50.17
2019-01-20T10:15:16.300Z,49.30
2019-01-20T10:17:24.672Z,47.67
2019-01-20T10:19:31.971Z,52.17
2019-01-20T10:21:39.462Z,50.37
2019-01-20T10:23:46.847Z,51.87
2019-01-20T10:25:54.078Z,50.97
2019-01-20T10:28:01.434Z,48.87
2019-01-20T10:30:15.717Z,53.83
2019-01-20T10:32:23.274Z,67.80
2019-01-20T10:34:31.307Z,58.43
2019-01-20T10:36:38.909Z,55.27
2019-01-20T10:38:46.335Z,47.33
2019-01-20T10:40:53.772Z,49.40
2019-01-20T10:43:01.301Z,49.67
2019-01-20T10:45:10.294Z,49.53
2019-01-20T10:47:18.156Z,52.00
2019-01-20T10:49:25.599Z,52.27
2019-01-20T10:51:33.319Z,55.63
2019-01-20T10:53:40.822Z,57.23
2019-01-20T10:55:48.276Z,55.57
2019-01-20T10:57:56.027Z,51.40
2019-01-20T11:00:03.718Z,55.30
2019-01-20T11:02:11.488Z,50.20
2019-01-20T11:04:19.006Z,50.97
2019-01-20T11:06:26.612Z,50.20
2019-01-20T11:08:34.649Z,48.97
2019-01-20T11:10:42.898Z,45.10
2019-01-20T11:12:51.271Z,45.77
2019-01-20T11:14:59.774Z,46.13
2019-01-20T11:17:08.460Z,43.83
2019-01-20T11:19:16.154Z,55.20
2019-01-20T11:21:24.540Z,49.53
2019-01-20T11:23:33.427Z,43.37
2019-01-20T11:25:45.987Z,40.70
2019-01-20T11:27:54.178Z,49.87
2019-01-20T11:30:03.194Z,46.50
2019-01-20T11:32:10.555Z,50.07
2019-01-20T11:34:19.217Z,45.30
2019-01-20T11:36:27.359Z,45.87
2019-01-20T11:38:35.021Z,44.87
2019-01-20T11:40:42.769Z,45.23
2019-01-20T11:42:50.816Z,43.50
2019-01-20T11:44:58.400Z,36.17
2019-01-20T11:47:06.068Z,38.10
2019-01-20T11:49:13.855Z,36.40
2019-01-20T11:51:21.546Z,39.57
2019-01-20T11:53:29.888Z,43.60
2019-01-20T11:55:38.297Z,42.13
2019-01-20T11:57:46.124Z,40.80
2019-01-20T11:59:53.893Z,31.90
2019-01-20T12:02:02.450Z,31.57
2019-01-20T12:04:10.253Z,28.37
2019-01-20T12:06:18.226Z,31.17
2019-01-20T12:08:30.585Z,31.20
2019-01-20T12:10:35.612Z,30.27
2019-01-20T12:12:46.417Z,31.63
2019-01-20T12:14:53.895Z,31.93
2019-01-20T12:17:01.828Z,31.60
2019-01-20T12:19:09.230Z,30.33
2019-01-20T12:21:18.040Z,32.13
2019-01-20T12:23:25.325Z,35.27
2019-01-20T12:25:32.855Z,28.97
2019-01-20T12:27:41.267Z,29.63
2019-01-20T12:29:51.896Z,80.53
2019-01-20T12:32:00.615Z,79.13
2019-01-20T12:34:08.816Z,66.77
2019-01-20T12:36:16.858Z,34.67
2019-01-20T12:38:24.927Z,40.80
2019-01-20T12:40:45.892Z,38.77
2019-01-20T12:42:53.795Z,35.50
2019-01-20T12:45:02.299Z,42.47
2019-01-20T12:47:11.910Z,39.70
2019-01-20T12:49:19.820Z,39.03
2019-01-20T12:51:28.616Z,35.77
2019-01-20T12:53:36.813Z,37.77
2019-01-20T12:55:44.664Z,37.57
2019-01-20T12:57:52.355Z,46.70
2019-01-20T12:59:59.682Z,40.83
2019-01-20T13:02:06.968Z,41.73
2019-01-20T13:04:14.319Z,39.73
2019-01-20T13:06:22.327Z,37.03
2019-01-20T13:08:29.878Z,36.57
2019-01-20T13:10:37.805Z,47.13
2019-01-20T13:12:45.807Z,47.00
2019-01-20T13:14:54.135Z,46.90
2019-01-20T13:17:02.691Z,45.33
2019-01-20T13:19:11.604Z,33.43
2019-01-20T13:21:20.972Z,35.40
2019-01-20T13:23:28.938Z,31.83
2019-01-20T13:25:37.194Z,44.67
2019-01-20T13:27:45.550Z,37.27
2019-01-20T13:29:54.485Z,35.67
2019-01-20T13:32:03.068Z,40.73
2019-01-20T13:34:10.832Z,38.13
2019-01-20T13:36:19.093Z,80.43
2019-01-20T13:38:29.057Z,67.27
2019-01-20T13:40:45.483Z,49.77
2019-01-20T13:42:54.376Z,61.00
2019-01-20T13:45:03.067Z,56.53
2019-01-20T13:47:11.558Z,36.53
2019-01-20T13:49:19.964Z,35.43
2019-01-20T13:51:29.775Z,38.57
2019-01-20T13:53:38.389Z,35.10
2019-01-20T13:55:46.643Z,31.23
2019-01-20T13:57:54.820Z,43.80
2019-01-20T14:00:02.749Z,36.50
2019-01-20T14:02:10.842Z,28.90
2019-01-20T14:04:19.236Z,30.03
2019-01-20T14:06:27.240Z,28.40
2019-01-20T14:08:34.412Z,30.20
2019-01-20T14:10:41.701Z,35.03
2019-01-20T14:12:48.990Z,31.57
2019-01-20T14:14:56.330Z,31.70
2019-01-20T14:17:03.789Z,36.57
2019-01-20T14:19:11.653Z,40.97
2019-01-20T14:21:19.143Z,32.87
2019-01-20T14:23:26.643Z,29.90
2019-01-20T14:25:34.299Z,49.70
2019-01-20T14:27:41.584Z,31.17
2019-01-20T14:29:48.877Z,29.53
2019-01-20T14:31:56.220Z,30.23
2019-01-20T14:34:03.520Z,32.47
2019-01-20T14:36:10.944Z,28.27
2019-01-20T14:38:18.218Z,30.97
2019-01-20T14:40:25.438Z,41.57
2019-01-20T14:42:32.637Z,36.57
2019-01-20T14:44:39.758Z,32.23
2019-01-20T14:46:46.843Z,37.77
2019-01-20T14:48:54.542Z,29.07
2019-01-20T14:51:01.799Z,29.43
2019-01-20T14:53:09.434Z,32.53
2019-01-20T14:55:16.845Z,27.77
2019-01-20T14:57:24.037Z,29.43
2019-01-20T14:59:31.235Z,32.10
2019-01-20T15:01:38.524Z,33.23
2019-01-20T15:03:45.769Z,32.03
2019-01-20T15:05:52.996Z,31.60
2019-01-20T15:08:00.596Z,40.93
2019-01-20T15:10:10.003Z,28.87
2019-01-20T15:12:17.141Z,29.37
2019-01-20T15:14:24.296Z,25.10
2019-01-20T15:16:31.771Z,25.97
2019-01-20T15:18:39.077Z,32.30
2019-01-20T15:20:46.763Z,27.17
2019-01-20T15:22:53.940Z,30.53
2019-01-20T15:25:01.934Z,29.37
2019-01-20T15:27:09.490Z,25.60
2019-01-20T15:29:16.567Z,25.43
2019-01-20T15:31:23.610Z,26.40
2019-01-20T15:33:31.835Z,28.53
2019-01-20T15:35:39.353Z,25.77
2019-01-20T15:37:47.045Z,24.93
2019-01-20T15:39:54.643Z,26.33
2019-01-20T15:42:02.122Z,25.63
2019-01-20T15:44:09.849Z,25.77
2019-01-20T15:46:17.418Z,23.43
2019-01-20T15:48:25.086Z,25.30
2019-01-20T15:50:33.510Z,26.60
2019-01-20T15:52:40.901Z,45.53
2019-01-20T15:54:48.323Z,32.70
2019-01-20T15:56:55.863Z,33.17
2019-01-20T15:59:03.556Z,33.10
2019-01-20T16:01:10.788Z,25.70
2019-01-20T16:03:18.024Z,25.53
2019-01-20T16:05:26.381Z,23.63
2019-01-20T16:07:33.725Z,24.80
2019-01-20T16:09:40.874Z,26.83
2019-01-20T16:11:48.196Z,38.97
2019-01-20T16:13:56.414Z,33.07
2019-01-20T16:16:04.276Z,31.33
2019-01-20T16:18:14.318Z,35.20
2019-01-20T16:20:21.355Z,31.40
2019-01-20T16:22:28.910Z,29.33
2019-01-20T16:24:36.618Z,24.00
2019-01-20T16:26:44.286Z,20.87
2019-01-20T16:28:51.849Z,21.33
2019-01-20T16:30:59.328Z,22.83
2019-01-20T16:33:06.624Z,23.67
2019-01-20T16:35:14.827Z,22.30
2019-01-20T16:37:22.511Z,20.33
2019-01-20T16:39:30.053Z,22.23
2019-01-20T16:41:37.490Z,23.17
2019-01-20T16:43:45.632Z,21.63
2019-01-20T16:45:53.728Z,21.03
2019-01-20T16:48:01.115Z,24.53
2019-01-20T16:50:11.614Z,21.43
2019-01-20T16:52:20.026Z,41.13
2019-01-20T16:54:28.825Z,31.57
2019-01-20T16:56:37.676Z,22.03
2019-01-20T16:58:45.772Z,20.30
2019-01-20T17:00:54.322Z,21.37
2019-01-20T17:03:02.323Z,28.60
2019-01-20T17:05:12.611Z,30.20
2019-01-20T17:07:20.630Z,26.90
2019-01-20T17:09:29.594Z,28.90
2019-01-20T17:11:38.052Z,36.30
2019-01-20T17:13:46.755Z,20.27
2019-01-20T17:15:54.728Z,29.50
2019-01-20T17:18:02.105Z,29.43
2019-01-20T17:20:10.885Z,18.40
2019-01-20T17:22:19.034Z,59.13
2019-01-20T17:24:27.468Z,19.77
2019-01-20T17:26:35.649Z,64.17
2019-01-20T17:28:45.548Z,23.23
2019-01-20T17:30:53.674Z,19.53
2019-01-20T17:33:01.474Z,19.40
2019-01-20T17:35:11.093Z,36.93
2019-01-20T17:37:19.444Z,38.53
2019-01-20T17:39:27.632Z,32.07
2019-01-20T17:41:35.931Z,30.80
2019-01-20T17:43:44.587Z,30.47
2019-01-20T17:45:52.364Z,31.83
2019-01-20T17:48:00.730Z,42.30
2019-01-20T17:50:14.695Z,22.47
2019-01-20T17:52:23.262Z,29.60
2019-01-20T17:54:31.253Z,60.10
2019-01-20T17:56:39.485Z,47.97
2019-01-20T17:58:48.053Z,64.33
2019-01-20T18:01:05.968Z,32.87
2019-01-20T18:03:14.365Z,30.40
2019-01-20T18:05:24.514Z,37.97
2019-01-20T18:07:32.253Z,35.53
2019-01-20T18:09:39.961Z,29.40
2019-01-20T18:11:48.839Z,48.57
2019-01-20T18:13:56.734Z,35.73
2019-01-20T18:16:04.775Z,34.30
2019-01-20T18:18:13.026Z,26.70
2019-01-20T18:20:24.072Z,37.97
2019-01-20T18:22:32.331Z,41.17
2019-01-20T18:24:40.930Z,41.00
2019-01-20T18:26:49.747Z,27.53
2019-01-20T18:28:57.769Z,32.00
2019-01-20T18:31:06.010Z,50.43
2019-01-20T18:33:14.397Z,38.43
2019-01-20T18:35:23.342Z,27.77
2019-01-20T18:37:31.053Z,29.63
2019-01-20T18:39:39.054Z,29.73
2019-01-20T18:41:46.953Z,29.23
2019-01-20T18:43:54.601Z,31.00
2019-01-20T18:46:02.594Z,29.00
2019-01-20T18:48:10.231Z,34.33
2019-01-20T18:50:21.154Z,50.23
2019-01-20T18:52:29.243Z,47.87
2019-01-20T18:54:36.778Z,36.60
2019-01-20T18:56:44.627Z,36.47
2019-01-20T18:58:52.385Z,36.63
2019-01-20T19:01:00.300Z,30.87
2019-01-20T19:03:07.647Z,29.63
2019-01-20T19:05:16.589Z,30.23
2019-01-20T19:07:24.253Z,60.93
2019-01-20T19:09:31.751Z,49.17
2019-01-20T19:11:40.453Z,45.20
2019-01-20T19:13:48.354Z,32.10
2019-01-20T19:15:56.208Z,29.50
2019-01-20T19:18:06.603Z,38.57
2019-01-20T19:20:24.670Z,37.07
2019-01-20T19:22:32.913Z,36.60
2019-01-20T19:24:40.766Z,35.10
2019-01-20T19:26:48.451Z,39.07
2019-01-20T19:29:02.800Z,37.00
2019-01-20T19:31:04.869Z,43.57
2019-01-20T19:33:14.736Z,40.17
2019-01-20T19:35:22.987Z,37.27
2019-01-20T19:37:32.329Z,33.13
2019-01-20T19:39:40.313Z,34.07
2019-01-20T19:41:48.428Z,34.73
2019-01-20T19:43:56.109Z,34.93
2019-01-20T19:46:06.113Z,34.80
2019-01-20T19:48:20.094Z,36.67
2019-01-20T19:50:23.808Z,35.20
2019-01-20T19:52:31.372Z,36.77
2019-01-20T19:54:39.885Z,37.90
2019-01-20T19:56:47.662Z,41.33
2019-01-20T19:58:55.124Z,44.50
2019-01-20T20:01:02.609Z,45.20
2019-01-20T20:03:10.832Z,38.03
2019-01-20T20:05:20.380Z,40.43
2019-01-20T20:07:28.031Z,39.23
2019-01-20T20:09:35.715Z,39.27
2019-01-20T20:11:43.404Z,39.57
2019-01-20T20:13:50.991Z,39.20
2019-01-20T20:15:58.714Z,37.43
2019-01-20T20:18:06.689Z,39.73
2019-01-20T20:20:14.646Z,42.47
2019-01-20T20:22:22.756Z,45.50
2019-01-20T20:24:30.506Z,51.57
2019-01-20T20:26:38.664Z,91.30
2019-01-20T20:28:46.440Z,92.77
2019-01-20T20:30:54.018Z,75.70
2019-01-20T20:33:01.868Z,71.93
2019-01-20T20:35:09.984Z,58.03
2019-01-20T20:37:17.625Z,61.53
2019-01-20T20:39:25.582Z,55.40
2019-01-20T20:41:33.279Z,57.27
2019-01-20T20:43:41.644Z,54.97
2019-01-20T20:45:49.688Z,46.40
2019-01-20T20:47:57.933Z,46.27
2019-01-20T20:50:05.769Z,42.27
2019-01-20T20:52:13.307Z,60.43
2019-01-20T20:54:20.885Z,99.83
2019-01-20T20:56:28.402Z,101.93
2019-01-20T20:58:35.830Z,75.20
2019-01-20T21:00:46.972Z,47.80
2019-01-20T21:02:55.008Z,45.90
2019-01-20T21:05:02.581Z,43.87
2019-01-20T21:07:10.403Z,45.27
2019-01-20T21:09:17.987Z,43.57
2019-01-20T21:11:25.526Z,39.67
2019-01-20T21:13:33.152Z,44.83
2019-01-20T21:15:40.515Z,42.93
2019-01-20T21:17:48.701Z,46.83
2019-01-20T21:19:56.475Z,48.60
2019-01-20T21:22:03.719Z,85.00
2019-01-20T21:24:10.947Z,57.63
2019-01-20T21:26:18.589Z,51.43
2019-01-20T21:28:26.094Z,39.73
2019-01-20T21:30:33.220Z,40.53
2019-01-20T21:32:40.352Z,39.87
2019-01-20T21:34:47.513Z,41.07
2019-01-20T21:36:54.677Z,38.80
2019-01-20T21:39:02.330Z,39.33
2019-01-20T21:41:09.500Z,37.57
2019-01-20T21:43:16.572Z,38.27
2019-01-20T21:45:24.560Z,37.90
2019-01-20T21:47:31.788Z,39.63
2019-01-20T21:49:39.148Z,38.23
2019-01-20T21:51:46.733Z,40.70
2019-01-20T21:53:54.168Z,51.90
2019-01-20T21:56:02.526Z,43.37
2019-01-20T21:58:09.873Z,44.07
2019-01-20T22:00:21.219Z,78.50
2019-01-20T22:02:28.562Z,82.23
2019-01-20T22:04:37.906Z,83.90
2019-01-20T22:06:45.061Z,82.03
2019-01-20T22:08:52.431Z,43.97
2019-01-20T22:11:00.118Z,42.47
2019-01-20T22:13:07.225Z,41.33
2019-01-20T22:15:14.736Z,40.97
2019-01-20T22:17:22.433Z,43.37
2019-01-20T22:19:30.047Z,40.60
2019-01-20T22:21:37.399Z,41.33
2019-01-20T22:23:45.070Z,39.13
2019-01-20T22:25:52.615Z,40.80
2019-01-20T22:27:59.942Z,42.53
2019-01-20T22:30:14.737Z,43.10
2019-01-20T22:32:21.912Z,38.77
2019-01-20T22:34:29.027Z,40.80
2019-01-20T22:36:36.253Z,40.23
2019-01-20T22:38:43.376Z,38.60
2019-01-20T22:40:50.514Z,38.13
2019-01-20T22:42:59.136Z,39.73
2019-01-20T22:45:07.427Z,37.87
2019-01-20T22:47:15.008Z,36.97
2019-01-20T22:49:22.361Z,37.60
2019-01-20T22:51:29.439Z,36.50
2019-01-20T22:53:36.486Z,36.00
2019-01-20T22:55:43.703Z,37.60
2019-01-20T22:57:50.877Z,35.33
2019-01-20T23:02:29.322Z,33.20
2019-01-20T23:04:36.381Z,32.87
2019-01-20T23:06:43.477Z,33.80
2019-01-20T23:08:50.668Z,33.33
2019-01-20T23:10:57.727Z,33.27
2019-01-20T23:13:04.939Z,31.83
2019-01-20T23:15:12.567Z,32.97
2019-01-20T23:17:19.575Z,32.33
2019-01-20T23:19:26.614Z,33.07
2019-01-20T23:21:33.771Z,33.47
2019-01-20T23:23:40.882Z,33.47
2019-01-20T23:25:48.010Z,32.10
2019-01-20T23:27:55.408Z,33.47
2019-01-20T23:30:02.799Z,31.90
2019-01-20T23:32:10.166Z,34.20
2019-01-20T23:34:17.839Z,33.00
2019-01-20T23:36:25.268Z,32.20
2019-01-20T23:38:32.335Z,36.67
2019-01-20T23:40:39.408Z,33.33
2019-01-20T23:42:46.542Z,34.07
2019-01-20T23:44:53.617Z,36.00
2019-01-20T23:47:00.648Z,35.57
2019-01-20T23:49:07.931Z,37.57
2019-01-20T23:51:15.343Z,34.77
2019-01-20T23:53:22.491Z,37.50
2019-01-20T23:55:29.576Z,38.73
2019-01-20T23:57:36.989Z,36.83
2019-01-20T23:59:44.288Z,38.00
